createdAt,value
2022-08-08T00:00:50.752Z,16.90
2022-08-08T00:03:31.838Z,16.70
2022-08-08T00:06:10.032Z,16.50
2022-08-08T00:08:50.794Z,16.50
2022-08-08T00:11:46.459Z,16.70
2022-08-08T00:14:54.745Z,16.90
2022-08-08T00:17:58.264Z,17.00
2022-08-08T00:20:28.842Z,16.90
2022-08-08T00:23:02.351Z,16.70
2022-08-08T00:25:46.399Z,16.80
2022-08-08T00:28:35.681Z,17.00
2022-08-08T00:32:28.815Z,17.10
2022-08-08T00:34:54.271Z,16.90
2022-08-08T00:37:48.223Z,16.50
2022-08-08T00:41:09.170Z,16.60
2022-08-08T00:43:45.945Z,16.60
2022-08-08T00:46:57.270Z,16.50
2022-08-08T00:50:06.172Z,16.40
2022-08-08T00:52:51.690Z,16.30
2022-08-08T00:55:53.332Z,16.10
2022-08-08T00:59:18.682Z,15.90
2022-08-08T01:03:57.405Z,15.70
2022-08-08T01:05:59.599Z,15.80
2022-08-08T01:08:53.904Z,16.00
2022-08-08T01:11:42.668Z,16.20
2022-08-08T01:14:17.985Z,16.20
2022-08-08T01:17:07.473Z,16.00
2022-08-08T01:20:02.924Z,16.10
2022-08-08T01:23:01.391Z,16.00
2022-08-08T01:26:17.125Z,15.80
2022-08-08T01:28:56.952Z,15.90
2022-08-08T01:32:12.757Z,15.90
2022-08-08T01:34:50.781Z,15.90
2022-08-08T01:37:56.975Z,15.70
2022-08-08T01:40:35.587Z,15.80
2022-08-08T01:43:34.712Z,15.70
2022-08-08T01:46:39.317Z,15.70
2022-08-08T01:49:37.394Z,15.70
2022-08-08T01:54:04.524Z,15.60
2022-08-08T01:56:29.442Z,15.50
2022-08-08T01:58:19.199Z,15.20
2022-08-08T02:01:04.753Z,15.20
2022-08-08T02:04:28.261Z,15.40
2022-08-08T02:07:08.837Z,15.50
2022-08-08T02:10:01.478Z,15.50
2022-08-08T02:12:34.851Z,15.50
2022-08-08T02:15:39.517Z,15.50
2022-08-08T02:18:26.492Z,15.40
2022-08-08T02:21:39.430Z,15.40
2022-08-08T02:24:23.874Z,15.60
2022-08-08T02:27:12.901Z,15.60
2022-08-08T02:29:55.500Z,15.50
2022-08-08T02:32:55.669Z,15.50
2022-08-08T02:36:05.634Z,15.50
2022-08-08T02:38:51.078Z,15.50
2022-08-08T02:41:58.624Z,15.40
2022-08-08T02:44:34.949Z,15.30
2022-08-08T02:47:27.973Z,15.20
2022-08-08T02:50:40.229Z,15.00
2022-08-08T02:53:32.814Z,14.90
2022-08-08T02:56:24.237Z,15.00
2022-08-08T02:59:37.423Z,15.10
2022-08-08T03:02:50.277Z,15.10
2022-08-08T03:05:45.099Z,14.80
2022-08-08T03:08:44.049Z,14.60
2022-08-08T03:12:02.629Z,14.60
2022-08-08T03:15:59.619Z,14.60
2022-08-08T03:17:40.780Z,14.60
2022-08-08T03:20:10.241Z,14.40
2022-08-08T03:22:43.344Z,14.20
2022-08-08T03:25:18.123Z,14.10
2022-08-08T03:27:56.986Z,14.10
2022-08-08T03:30:24.991Z,14.00
2022-08-08T03:33:55.135Z,14.00
2022-08-08T03:35:59.126Z,14.10
2022-08-08T03:38:57.649Z,14.20
2022-08-08T03:42:13.339Z,14.40
2022-08-08T03:43:59.943Z,14.70
2022-08-08T03:46:32.638Z,14.80
2022-08-08T03:49:56.195Z,14.80
2022-08-08T03:51:56.045Z,14.70
2022-08-08T03:54:51.558Z,14.70
2022-08-08T03:58:34.294Z,14.80
2022-08-08T04:00:18.344Z,14.80
2022-08-08T04:02:55.905Z,14.90
2022-08-08T04:05:35.074Z,14.90
2022-08-08T04:08:04.508Z,14.80
2022-08-08T04:10:34.377Z,14.80
2022-08-08T04:13:03.799Z,14.70
2022-08-08T04:15:55.210Z,14.70
2022-08-08T04:18:31.198Z,14.70
2022-08-08T04:20:57.997Z,14.70
2022-08-08T04:23:24.648Z,14.70
2022-08-08T04:26:03.081Z,14.70
2022-08-08T04:28:40.245Z,14.70
2022-08-08T04:31:09.289Z,14.70
2022-08-08T04:33:41.574Z,14.70
2022-08-08T04:36:09.062Z,14.60
2022-08-08T04:38:37.469Z,14.50
2022-08-08T04:41:09.279Z,14.20
2022-08-08T04:43:45.389Z,14.10
2022-08-08T04:46:14.894Z,14.30
2022-08-08T04:48:41.857Z,14.60
2022-08-08T04:51:10.358Z,14.70
2022-08-08T04:54:36.073Z,14.70
2022-08-08T04:56:24.769Z,14.70
2022-08-08T04:58:52.494Z,14.50
2022-08-08T05:01:19.223Z,14.50
2022-08-08T05:04:09.190Z,14.60
2022-08-08T05:06:36.423Z,14.90
2022-08-08T05:09:06.293Z,15.00
2022-08-08T05:11:39.042Z,14.90
2022-08-08T05:14:07.638Z,14.90
2022-08-08T05:16:54.507Z,14.90
2022-08-08T05:20:12.037Z,15.10
2022-08-08T05:22:10.342Z,15.10
2022-08-08T05:24:38.671Z,15.10
2022-08-08T05:27:06.191Z,14.90
2022-08-08T05:29:35.879Z,15.20
2022-08-08T05:32:08.105Z,15.30
2022-08-08T05:34:34.851Z,15.40
2022-08-08T05:37:07.395Z,15.50
2022-08-08T05:39:46.109Z,15.50
2022-08-08T05:42:15.868Z,15.70
2022-08-08T05:44:49.123Z,15.60
2022-08-08T05:47:22.251Z,15.70
2022-08-08T05:49:53.876Z,15.70
2022-08-08T05:52:32.277Z,15.70
2022-08-08T05:55:08.971Z,15.80
2022-08-08T05:58:04.367Z,16.00
2022-08-08T06:00:30.056Z,15.90
2022-08-08T06:03:17.429Z,15.90
2022-08-08T06:05:59.532Z,15.90
2022-08-08T06:08:53.412Z,16.10
2022-08-08T06:11:23.017Z,16.40
2022-08-08T06:13:56.507Z,16.50
2022-08-08T06:16:27.550Z,16.60
2022-08-08T06:19:00.741Z,16.50
2022-08-08T06:21:49.039Z,16.70
2022-08-08T06:24:23.271Z,16.80
2022-08-08T06:27:09.488Z,17.00
2022-08-08T06:30:00.083Z,17.20
2022-08-08T06:32:31.185Z,17.20
2022-08-08T06:35:30.674Z,17.90
2022-08-08T06:37:58.373Z,19.20
2022-08-08T06:40:29.870Z,21.20
2022-08-08T06:43:06.065Z,21.70
2022-08-08T06:45:39.010Z,23.10
2022-08-08T06:48:06.149Z,22.90
2022-08-08T06:50:33.778Z,23.80
2022-08-08T06:53:13.824Z,23.90
2022-08-08T06:55:46.954Z,24.60
2022-08-08T06:58:14.341Z,24.30
2022-08-08T07:00:45.404Z,24.40
2022-08-08T07:04:40.301Z,24.90
2022-08-08T07:06:51.204Z,25.30
2022-08-08T07:09:21.899Z,25.60
2022-08-08T07:11:56.980Z,25.20
2022-08-08T07:14:33.965Z,25.40
2022-08-08T07:17:09.452Z,25.90
2022-08-08T07:20:02.658Z,26.10
2022-08-08T07:22:49.889Z,26.10
2022-08-08T07:25:19.368Z,25.90
2022-08-08T07:28:02.129Z,26.10
2022-08-08T07:30:35.360Z,25.90
2022-08-08T07:33:02.314Z,25.10
2022-08-08T07:35:30.924Z,24.60
2022-08-08T07:38:10.576Z,25.40
2022-08-08T07:40:47.251Z,26.30
2022-08-08T07:43:14.852Z,26.70
2022-08-08T07:46:04.815Z,26.80
2022-08-08T07:48:30.340Z,27.80
2022-08-08T07:51:00.866Z,28.10
2022-08-08T07:54:01.682Z,27.80
2022-08-08T07:56:37.241Z,28.00
2022-08-08T07:59:10.497Z,28.10
2022-08-08T08:02:32.970Z,28.00
2022-08-08T08:04:33.103Z,26.70
2022-08-08T08:07:08.776Z,26.90
2022-08-08T08:09:40.208Z,26.70
2022-08-08T08:12:09.578Z,26.20
2022-08-08T08:15:04.311Z,27.20
2022-08-08T08:17:44.941Z,26.50
2022-08-08T08:20:16.336Z,26.20
2022-08-08T08:22:43.550Z,25.90
2022-08-08T08:25:10.510Z,26.80
2022-08-08T08:27:37.253Z,27.40
2022-08-08T08:30:05.314Z,26.90
2022-08-08T08:32:36.349Z,28.00
2022-08-08T08:35:07.596Z,28.60
2022-08-08T08:37:40.346Z,29.40
2022-08-08T08:40:22.023Z,28.90
2022-08-08T08:42:49.743Z,27.50
2022-08-08T08:45:22.770Z,28.60
2022-08-08T08:47:58.193Z,28.90
2022-08-08T08:50:33.909Z,28.50
2022-08-08T08:53:28.349Z,28.70
2022-08-08T08:55:53.950Z,28.90
2022-08-08T08:58:32.188Z,29.20
2022-08-08T09:01:08.958Z,28.50
2022-08-08T09:03:47.083Z,29.30
2022-08-08T09:06:28.329Z,29.60
2022-08-08T09:09:03.192Z,28.80
2022-08-08T09:11:47.525Z,29.00
2022-08-08T09:14:25.788Z,29.50
2022-08-08T09:16:54.129Z,30.60
2022-08-08T09:22:02.947Z,30.60
2022-08-08T09:22:11.126Z,31.30
2022-08-08T09:24:40.163Z,30.10
2022-08-08T09:27:20.297Z,29.80
2022-08-08T09:30:05.080Z,30.40
2022-08-08T09:32:50.380Z,30.40
2022-08-08T09:35:37.410Z,30.50
2022-08-08T09:38:05.948Z,30.60
2022-08-08T09:40:55.667Z,30.30
2022-08-08T09:43:40.855Z,30.20
2022-08-08T09:46:30.631Z,30.20
2022-08-08T09:49:18.054Z,30.40
2022-08-08T09:52:07.019Z,30.30
2022-08-08T09:54:45.686Z,31.40
2022-08-08T09:57:19.166Z,30.90
2022-08-08T10:00:21.018Z,30.90
2022-08-08T10:02:40.160Z,31.20
2022-08-08T10:05:25.250Z,31.20
2022-08-08T10:07:52.335Z,31.40
2022-08-08T10:10:37.730Z,31.00
2022-08-08T10:13:17.388Z,30.80
2022-08-08T10:16:00.240Z,32.00
2022-08-08T10:18:34.063Z,31.90
2022-08-08T10:21:25.267Z,32.00
2022-08-08T10:24:02.649Z,30.80
2022-08-08T10:26:57.565Z,31.60
2022-08-08T10:29:58.349Z,31.00
2022-08-08T10:32:38.115Z,30.30
2022-08-08T10:36:06.899Z,31.70
2022-08-08T10:38:05.816Z,33.00
2022-08-08T10:40:38.897Z,32.70
2022-08-08T10:43:09.907Z,32.80
2022-08-08T10:45:56.618Z,32.30
2022-08-08T10:48:34.986Z,31.10
2022-08-08T10:51:13.282Z,32.80
2022-08-08T10:53:57.415Z,32.10
2022-08-08T10:56:27.432Z,31.90
2022-08-08T10:58:59.882Z,31.70
2022-08-08T11:01:33.336Z,30.80
2022-08-08T11:04:04.427Z,31.70
2022-08-08T11:06:36.587Z,31.60
2022-08-08T11:09:19.615Z,30.60
2022-08-08T11:12:05.538Z,31.00
2022-08-08T11:14:34.646Z,31.20
2022-08-08T11:17:03.895Z,30.70
2022-08-08T11:19:32.042Z,30.80
2022-08-08T11:22:01.369Z,30.10
2022-08-08T11:24:35.785Z,30.00
2022-08-08T11:27:10.497Z,30.80
2022-08-08T11:30:04.450Z,31.20
2022-08-08T11:32:41.728Z,32.40
2022-08-08T11:35:27.049Z,32.60
2022-08-08T11:38:39.245Z,33.60
2022-08-08T11:40:51.752Z,32.00
2022-08-08T11:43:21.662Z,31.20
2022-08-08T11:46:09.652Z,30.10
2022-08-08T11:48:37.360Z,30.60
2022-08-08T11:51:38.839Z,31.20
2022-08-08T11:53:55.238Z,31.80
2022-08-08T11:56:42.191Z,31.80
2022-08-08T11:59:11.791Z,31.60
2022-08-08T12:01:39.270Z,31.90
2022-08-08T12:04:09.140Z,31.40
2022-08-08T12:06:36.628Z,31.10
2022-08-08T12:09:17.215Z,31.50
2022-08-08T12:11:46.135Z,30.50
2022-08-08T12:14:29.173Z,30.70
2022-08-08T12:16:57.162Z,30.80
2022-08-08T12:19:37.632Z,31.10
2022-08-08T12:22:20.697Z,32.10
2022-08-08T12:24:53.885Z,31.50
2022-08-08T12:27:26.721Z,31.90
2022-08-08T12:29:59.961Z,32.60
2022-08-08T12:32:31.141Z,31.50
2022-08-08T12:35:04.578Z,31.50
2022-08-08T12:37:41.129Z,31.40
2022-08-08T12:40:22.729Z,31.40
2022-08-08T12:42:51.886Z,31.30
2022-08-08T12:45:59.479Z,30.50
2022-08-08T12:48:36.460Z,30.10
2022-08-08T12:51:10.691Z,29.70
2022-08-08T12:53:54.728Z,30.50
2022-08-08T12:56:39.611Z,31.00
2022-08-08T12:59:36.345Z,30.50
2022-08-08T13:02:20.487Z,29.60
2022-08-08T13:04:51.064Z,29.60
2022-08-08T13:07:17.943Z,30.30
2022-08-08T13:10:10.997Z,30.20
2022-08-08T13:12:48.314Z,29.50
2022-08-08T13:15:19.516Z,29.40
2022-08-08T13:18:09.718Z,29.30
2022-08-08T13:20:44.805Z,29.40
2022-08-08T13:23:36.973Z,30.10
2022-08-08T13:26:15.010Z,30.10
2022-08-08T13:28:42.627Z,29.50
2022-08-08T13:31:16.488Z,28.70
2022-08-08T13:33:47.322Z,27.80
2022-08-08T13:36:25.661Z,27.50
2022-08-08T13:38:53.998Z,27.20
2022-08-08T13:41:22.124Z,26.80
2022-08-08T13:43:49.659Z,26.80
2022-08-08T13:46:27.334Z,26.70
2022-08-08T13:49:12.102Z,26.60
2022-08-08T13:51:53.149Z,26.80
2022-08-08T13:54:29.587Z,26.90
2022-08-08T13:57:04.468Z,26.80
2022-08-08T13:59:39.691Z,26.60
2022-08-08T14:02:22.842Z,26.50
2022-08-08T14:05:04.869Z,26.30
2022-08-08T14:07:45.120Z,26.40
2022-08-08T14:10:33.476Z,26.20
2022-08-08T14:13:09.975Z,26.40
2022-08-08T14:16:02.836Z,26.20
2022-08-08T14:18:35.906Z,26.20
2022-08-08T14:21:08.149Z,26.30
2022-08-08T14:24:06.898Z,26.20
2022-08-08T14:26:28.671Z,26.40
2022-08-08T14:28:58.307Z,26.30
2022-08-08T14:32:05.818Z,26.30
2022-08-08T14:34:22.817Z,26.50
2022-08-08T14:36:54.795Z,26.30
2022-08-08T14:39:24.911Z,26.10
2022-08-08T14:42:03.266Z,26.00
2022-08-08T14:44:35.006Z,26.00
2022-08-08T14:47:02.599Z,26.00
2022-08-08T14:50:06.309Z,26.10
2022-08-08T14:53:03.664Z,25.90
2022-08-08T14:55:42.142Z,26.20
2022-08-08T14:58:11.396Z,26.10
2022-08-08T15:00:43.369Z,26.20
2022-08-08T15:03:16.240Z,26.20
2022-08-08T15:05:53.422Z,25.90
2022-08-08T15:08:34.391Z,25.80
2022-08-08T15:11:04.451Z,25.70
2022-08-08T15:13:40.136Z,25.80
2022-08-08T15:16:18.513Z,25.80
2022-08-08T15:18:51.491Z,25.90
2022-08-08T15:21:19.346Z,26.00
2022-08-08T15:23:51.227Z,25.90
2022-08-08T15:26:20.209Z,25.90
2022-08-08T15:28:53.008Z,25.70
2022-08-08T15:31:26.086Z,25.70
2022-08-08T15:34:06.999Z,25.70
2022-08-08T15:36:35.384Z,25.50
2022-08-08T15:39:03.863Z,25.60
2022-08-08T15:41:43.815Z,25.80
2022-08-08T15:44:13.525Z,25.80
2022-08-08T15:46:45.207Z,25.70
2022-08-08T15:49:12.122Z,25.70
2022-08-08T15:51:38.781Z,25.60
2022-08-08T15:54:06.653Z,25.70
2022-08-08T15:56:45.421Z,25.70
2022-08-08T15:59:13.395Z,25.70
2022-08-08T16:01:40.778Z,25.70
2022-08-08T16:04:29.790Z,25.60
2022-08-08T16:06:57.131Z,25.60
2022-08-08T16:13:10.725Z,25.60
2022-08-08T16:13:12.266Z,25.50
2022-08-08T16:14:58.638Z,25.50
2022-08-08T16:17:57.429Z,25.30
2022-08-08T16:20:13.564Z,25.30
2022-08-08T16:22:41.731Z,25.40
2022-08-08T16:25:09.461Z,25.40
2022-08-08T16:27:36.857Z,25.40
2022-08-08T16:30:13.108Z,25.50
2022-08-08T16:32:41.815Z,25.50
2022-08-08T16:35:09.526Z,25.10
2022-08-08T16:37:40.200Z,25.20
2022-08-08T16:40:13.820Z,25.20
2022-08-08T16:42:46.341Z,25.20
2022-08-08T16:46:36.257Z,25.20
2022-08-08T16:48:06.280Z,25.10
2022-08-08T16:50:33.049Z,25.00
2022-08-08T16:55:04.906Z,25.00
2022-08-08T16:55:55.693Z,25.10
2022-08-08T16:58:29.261Z,25.00
2022-08-08T17:01:01.523Z,25.10
2022-08-08T17:04:00.699Z,25.00
2022-08-08T17:06:36.149Z,25.10
2022-08-08T17:09:02.568Z,25.20
2022-08-08T17:11:39.163Z,25.00
2022-08-08T17:14:19.053Z,24.90
2022-08-08T17:16:57.843Z,24.80
2022-08-08T17:19:27.491Z,24.60
2022-08-08T17:21:56.009Z,24.70
2022-08-08T17:24:29.741Z,24.60
2022-08-08T17:26:57.966Z,24.60
2022-08-08T17:29:25.914Z,24.70
2022-08-08T17:31:53.226Z,24.70
2022-08-08T17:34:48.096Z,24.60
2022-08-08T17:37:12.632Z,24.40
2022-08-08T17:40:04.375Z,24.30
2022-08-08T17:42:27.140Z,24.20
2022-08-08T17:44:54.373Z,24.10
2022-08-08T17:47:23.565Z,24.20
2022-08-08T17:50:02.960Z,24.20
2022-08-08T17:52:35.115Z,24.00
2022-08-08T17:55:05.790Z,24.10
2022-08-08T17:57:50.483Z,24.10
2022-08-08T18:00:25.880Z,24.00
2022-08-08T18:03:07.436Z,23.80
2022-08-08T18:05:44.024Z,23.70
2022-08-08T18:08:37.735Z,23.90
2022-08-08T18:11:16.164Z,24.00
2022-08-08T18:13:47.683Z,24.00
2022-08-08T18:16:16.812Z,23.90
2022-08-08T18:18:52.895Z,23.80
2022-08-08T18:21:34.866Z,23.80
2022-08-08T18:24:13.610Z,23.70
2022-08-08T18:26:54.541Z,23.60
2022-08-08T18:29:35.198Z,23.60
2022-08-08T18:32:03.883Z,23.60
2022-08-08T18:34:31.202Z,23.50
2022-08-08T18:37:00.546Z,23.50
2022-08-08T18:39:28.321Z,23.40
2022-08-08T18:41:59.647Z,23.30
2022-08-08T18:44:33.071Z,23.30
2022-08-08T18:47:02.933Z,23.20
2022-08-08T18:49:32.276Z,23.30
2022-08-08T18:52:07.505Z,23.10
2022-08-08T18:54:34.675Z,23.10
2022-08-08T18:57:03.893Z,23.10
2022-08-08T18:59:40.802Z,23.10
2022-08-08T19:02:26.571Z,23.00
2022-08-08T19:04:56.065Z,22.90
2022-08-08T19:07:25.704Z,22.80
2022-08-08T19:10:15.417Z,22.60
2022-08-08T19:12:44.512Z,22.50
2022-08-08T19:15:16.628Z,22.40
2022-08-08T19:18:33.190Z,22.30
2022-08-08T19:20:39.489Z,22.20
2022-08-08T19:23:08.600Z,22.20
2022-08-08T19:26:02.295Z,22.10
2022-08-08T19:28:24.020Z,22.00
2022-08-08T19:31:03.909Z,22.00
2022-08-08T19:33:51.976Z,21.90
2022-08-08T19:36:25.178Z,21.90
2022-08-08T19:38:55.771Z,21.70
2022-08-08T19:41:29.277Z,21.60
2022-08-08T19:44:03.225Z,21.60
2022-08-08T19:46:33.611Z,21.60
2022-08-08T19:49:01.001Z,21.60
2022-08-08T19:51:34.670Z,21.40
2022-08-08T19:54:06.581Z,21.30
2022-08-08T19:56:40.259Z,21.30
2022-08-08T19:59:10.360Z,21.20
2022-08-08T20:02:01.481Z,21.00
2022-08-08T20:04:27.897Z,21.00
2022-08-08T20:06:57.660Z,21.00
2022-08-08T20:09:25.065Z,20.90
2022-08-08T20:11:57.055Z,20.80
2022-08-08T20:14:35.701Z,20.70
2022-08-08T20:17:09.118Z,20.60
2022-08-08T20:19:42.221Z,20.50
2022-08-08T20:22:20.941Z,20.50
2022-08-08T20:24:57.274Z,20.50
2022-08-08T20:27:33.055Z,20.50
2022-08-08T20:30:52.756Z,20.50
2022-08-08T20:33:01.526Z,20.50
2022-08-08T20:35:32.845Z,20.30
2022-08-08T20:38:15.608Z,20.40
2022-08-08T20:40:50.941Z,20.30
2022-08-08T20:43:23.117Z,20.40
2022-08-08T20:46:05.585Z,20.30
2022-08-08T20:48:36.931Z,20.30
2022-08-08T20:51:05.491Z,20.30
2022-08-08T20:54:00.393Z,20.30
2022-08-08T20:56:35.431Z,20.20
2022-08-08T20:59:06.443Z,20.00
2022-08-08T21:02:06.526Z,20.00
2022-08-08T21:04:23.564Z,20.00
2022-08-08T21:06:54.890Z,20.00
2022-08-08T21:09:22.268Z,19.90
2022-08-08T21:11:51.248Z,19.90
2022-08-08T21:14:30.444Z,19.70
2022-08-08T21:17:01.572Z,19.70
2022-08-08T21:19:34.065Z,19.70
2022-08-08T21:22:11.730Z,19.60
2022-08-08T21:24:39.721Z,19.50
2022-08-08T21:28:06.334Z,19.50
2022-08-08T21:30:09.585Z,19.40
2022-08-08T21:32:44.196Z,19.30
2022-08-08T21:36:19.126Z,19.30
2022-08-08T21:38:03.955Z,19.30
2022-08-08T21:40:32.376Z,19.40
2022-08-08T21:43:00.342Z,19.30
2022-08-08T21:47:59.267Z,19.40
2022-08-08T21:48:22.867Z,19.50
2022-08-08T21:50:58.178Z,19.40
2022-08-08T21:54:36.375Z,19.40
2022-08-08T21:56:29.495Z,19.50
2022-08-08T21:59:00.066Z,19.50
2022-08-08T22:01:40.706Z,19.40
2022-08-08T22:04:10.508Z,19.60
2022-08-08T22:06:40.585Z,19.50
2022-08-08T22:09:09.607Z,19.40
2022-08-08T22:11:59.143Z,19.40
2022-08-08T22:14:26.690Z,19.50
2022-08-08T22:16:56.210Z,19.40
2022-08-08T22:19:23.601Z,19.30
2022-08-08T22:21:51.858Z,19.30
2022-08-08T22:24:28.214Z,19.30
2022-08-08T22:27:02.570Z,19.30
2022-08-08T22:29:59.334Z,19.30
2022-08-08T22:32:19.429Z,19.30
2022-08-08T22:34:50.572Z,19.30
2022-08-08T22:37:49.826Z,19.20
2022-08-08T22:40:11.699Z,19.00
2022-08-08T22:42:47.437Z,19.00
2022-08-08T22:45:15.629Z,19.00
2022-08-08T22:47:46.959Z,18.90
2022-08-08T22:50:25.847Z,19.00
2022-08-08T22:54:33.969Z,18.90
2022-08-08T22:55:59.688Z,18.70
2022-08-08T22:58:30.889Z,18.60
2022-08-08T23:01:00.180Z,18.60
2022-08-08T23:03:34.225Z,18.60
2022-08-08T23:06:16.216Z,18.60
2022-08-08T23:08:44.374Z,18.40
2022-08-08T23:11:22.274Z,18.40
2022-08-08T23:13:51.643Z,18.30
2022-08-08T23:16:38.058Z,18.40
2022-08-08T23:19:09.025Z,18.30
2022-08-08T23:21:38.054Z,18.30
2022-08-08T23:24:06.887Z,18.40
2022-08-08T23:26:34.411Z,18.30
2022-08-08T23:29:01.969Z,18.30
2022-08-08T23:31:29.299Z,18.30
2022-08-08T23:34:16.506Z,18.20
2022-08-08T23:36:44.815Z,18.30
2022-08-08T23:39:11.881Z,18.20
2022-08-08T23:41:45.696Z,18.20
2022-08-08T23:44:14.661Z,18.20
2022-08-08T23:49:03.338Z,18.10
2022-08-08T23:49:28.720Z,18.00
2022-08-08T23:52:05.355Z,17.90
2022-08-08T23:54:41.924Z,18.00
2022-08-08T23:57:15.333Z,17.90
